sensor_id;sensor_type;location;lat;lon;timestamp;P1;durP1;ratioP1;P2;durP2;ratioP2
65271;SDS011;51868;48.812;8.198;2022-11-20T00:02:05;7.55;;;5.20;;
65271;SDS011;51868;48.812;8.198;2022-11-20T00:04:32;8.15;;;5.32;;
65271;SDS011;51868;48.812;8.198;2022-11-20T00:07:00;5.97;;;4.50;;
65271;SDS011;51868;48.812;8.198;2022-11-20T00:09:28;6.22;;;4.75;;
65271;SDS011;51868;48.812;8.198;2022-11-20T00:11:57;7.93;;;5.38;;
65271;SDS011;51868;48.812;8.198;2022-11-20T00:14:24;6.72;;;4.47;;
65271;SDS011;51868;48.812;8.198;2022-11-20T00:16:52;7.53;;;5.20;;
65271;SDS011;51868;48.812;8.198;2022-11-20T00:19:20;7.32;;;5.13;;
65271;SDS011;51868;48.812;8.198;2022-11-20T00:21:48;9.27;;;5.22;;
65271;SDS011;51868;48.812;8.198;2022-11-20T00:24:17;11.30;;;5.97;;
65271;SDS011;51868;48.812;8.198;2022-11-20T00:26:45;11.02;;;6.60;;
65271;SDS011;51868;48.812;8.198;2022-11-20T00:29:14;8.63;;;5.90;;
65271;SDS011;51868;48.812;8.198;2022-11-20T00:31:41;6.55;;;5.13;;
65271;SDS011;51868;48.812;8.198;2022-11-20T00:34:09;11.25;;;5.60;;
65271;SDS011;51868;48.812;8.198;2022-11-20T00:36:37;7.72;;;5.22;;
65271;SDS011;51868;48.812;8.198;2022-11-20T00:39:05;17.73;;;10.02;;
65271;SDS011;51868;48.812;8.198;2022-11-20T00:41:32;14.00;;;7.57;;
65271;SDS011;51868;48.812;8.198;2022-11-20T00:44:00;10.52;;;5.75;;
65271;SDS011;51868;48.812;8.198;2022-11-20T00:46:29;8.20;;;6.15;;
65271;SDS011;51868;48.812;8.198;2022-11-20T00:48:57;12.02;;;6.40;;
65271;SDS011;51868;48.812;8.198;2022-11-20T00:51:25;14.95;;;6.88;;
65271;SDS011;51868;48.812;8.198;2022-11-20T00:53:54;11.30;;;5.63;;
65271;SDS011;51868;48.812;8.198;2022-11-20T00:56:22;8.65;;;6.22;;
65271;SDS011;51868;48.812;8.198;2022-11-20T00:58:50;8.70;;;5.63;;
65271;SDS011;51868;48.812;8.198;2022-11-20T01:01:19;8.35;;;5.78;;
65271;SDS011;51868;48.812;8.198;2022-11-20T01:03:49;9.18;;;6.07;;
65271;SDS011;51868;48.812;8.198;2022-11-20T01:06:19;9.48;;;5.65;;
65271;SDS011;51868;48.812;8.198;2022-11-20T01:08:48;9.10;;;6.20;;
65271;SDS011;51868;48.812;8.198;2022-11-20T01:11:18;7.47;;;5.47;;
65271;SDS011;51868;48.812;8.198;2022-11-20T01:13:48;9.10;;;6.45;;
65271;SDS011;51868;48.812;8.198;2022-11-20T01:16:17;10.93;;;5.80;;
65271;SDS011;51868;48.812;8.198;2022-11-20T01:18:47;11.55;;;6.50;;
65271;SDS011;51868;48.812;8.198;2022-11-20T01:21:18;12.93;;;6.22;;
65271;SDS011;51868;48.812;8.198;2022-11-20T01:23:47;9.27;;;5.38;;
65271;SDS011;51868;48.812;8.198;2022-11-20T01:26:17;14.27;;;6.32;;
65271;SDS011;51868;48.812;8.198;2022-11-20T01:28:46;9.65;;;6.00;;
65271;SDS011;51868;48.812;8.198;2022-11-20T01:31:16;12.20;;;6.00;;
65271;SDS011;51868;48.812;8.198;2022-11-20T01:33:45;11.40;;;5.53;;
65271;SDS011;51868;48.812;8.198;2022-11-20T01:36:15;8.77;;;5.85;;
65271;SDS011;51868;48.812;8.198;2022-11-20T01:38:44;8.07;;;5.80;;
65271;SDS011;51868;48.812;8.198;2022-11-20T01:41:13;8.27;;;5.68;;
65271;SDS011;51868;48.812;8.198;2022-11-20T01:44:02;8.90;;;5.85;;
65271;SDS011;51868;48.812;8.198;2022-11-20T01:46:30;7.35;;;4.90;;
65271;SDS011;51868;48.812;8.198;2022-11-20T01:48:58;9.23;;;5.45;;
65271;SDS011;51868;48.812;8.198;2022-11-20T01:51:31;8.43;;;5.20;;
65271;SDS011;51868;48.812;8.198;2022-11-20T01:54:02;6.72;;;4.30;;
65271;SDS011;51868;48.812;8.198;2022-11-20T01:56:34;8.38;;;5.00;;
65271;SDS011;51868;48.812;8.198;2022-11-20T01:59:05;7.90;;;5.00;;
65271;SDS011;51868;48.812;8.198;2022-11-20T02:01:35;9.45;;;4.55;;
65271;SDS011;51868;48.812;8.198;2022-11-20T02:04:05;8.52;;;5.03;;
65271;SDS011;51868;48.812;8.198;2022-11-20T02:06:38;9.13;;;5.10;;
65271;SDS011;51868;48.812;8.198;2022-11-20T02:09:09;8.55;;;4.72;;
65271;SDS011;51868;48.812;8.198;2022-11-20T02:11:37;7.07;;;4.20;;
65271;SDS011;51868;48.812;8.198;2022-11-20T02:14:05;6.47;;;4.50;;
65271;SDS011;51868;48.812;8.198;2022-11-20T02:16:33;7.45;;;5.63;;
65271;SDS011;51868;48.812;8.198;2022-11-20T02:19:04;8.30;;;4.72;;
65271;SDS011;51868;48.812;8.198;2022-11-20T02:21:35;8.80;;;4.82;;
65271;SDS011;51868;48.812;8.198;2022-11-20T02:24:09;7.07;;;4.63;;
65271;SDS011;51868;48.812;8.198;2022-11-20T02:26:45;8.02;;;4.60;;
65271;SDS011;51868;48.812;8.198;2022-11-20T02:29:16;6.28;;;4.57;;
65271;SDS011;51868;48.812;8.198;2022-11-20T02:31:50;10.07;;;4.80;;
65271;SDS011;51868;48.812;8.198;2022-11-20T02:34:19;8.60;;;5.30;;
65271;SDS011;51868;48.812;8.198;2022-11-20T02:36:47;8.13;;;4.45;;
65271;SDS011;51868;48.812;8.198;2022-11-20T02:39:18;6.28;;;4.15;;
65271;SDS011;51868;48.812;8.198;2022-11-20T02:41:48;5.95;;;4.30;;
65271;SDS011;51868;48.812;8.198;2022-11-20T02:44:15;6.82;;;4.10;;
65271;SDS011;51868;48.812;8.198;2022-11-20T02:46:43;6.50;;;4.50;;
65271;SDS011;51868;48.812;8.198;2022-11-20T02:49:11;6.97;;;4.10;;
65271;SDS011;51868;48.812;8.198;2022-11-20T02:51:39;8.15;;;5.03;;
65271;SDS011;51868;48.812;8.198;2022-11-20T02:54:06;6.93;;;4.90;;
65271;SDS011;51868;48.812;8.198;2022-11-20T02:56:35;11.95;;;5.10;;
65271;SDS011;51868;48.812;8.198;2022-11-20T02:59:05;5.80;;;4.65;;
65271;SDS011;51868;48.812;8.198;2022-11-20T03:01:32;6.70;;;4.45;;
65271;SDS011;51868;48.812;8.198;2022-11-20T03:04:00;5.90;;;3.90;;
65271;SDS011;51868;48.812;8.198;2022-11-20T03:06:28;8.65;;;4.70;;
65271;SDS011;51868;48.812;8.198;2022-11-20T03:08:56;6.97;;;4.30;;
65271;SDS011;51868;48.812;8.198;2022-11-20T03:11:24;6.15;;;4.47;;
65271;SDS011;51868;48.812;8.198;2022-11-20T03:13:53;6.35;;;4.20;;
65271;SDS011;51868;48.812;8.198;2022-11-20T03:16:21;6.28;;;4.30;;
65271;SDS011;51868;48.812;8.198;2022-11-20T03:18:51;9.95;;;4.75;;
65271;SDS011;51868;48.812;8.198;2022-11-20T03:21:19;6.68;;;4.00;;
65271;SDS011;51868;48.812;8.198;2022-11-20T03:23:47;6.50;;;4.00;;
65271;SDS011;51868;48.812;8.198;2022-11-20T03:26:16;8.02;;;4.35;;
65271;SDS011;51868;48.812;8.198;2022-11-20T03:28:46;5.18;;;3.83;;
65271;SDS011;51868;48.812;8.198;2022-11-20T03:31:16;6.55;;;4.07;;
65271;SDS011;51868;48.812;8.198;2022-11-20T03:33:45;10.05;;;4.72;;
65271;SDS011;51868;48.812;8.198;2022-11-20T03:36:14;6.88;;;4.32;;
65271;SDS011;51868;48.812;8.198;2022-11-20T03:38:43;8.20;;;4.43;;
65271;SDS011;51868;48.812;8.198;2022-11-20T03:41:12;7.03;;;4.63;;
65271;SDS011;51868;48.812;8.198;2022-11-20T03:43:41;5.18;;;4.03;;
65271;SDS011;51868;48.812;8.198;2022-11-20T03:46:09;8.93;;;4.65;;
65271;SDS011;51868;48.812;8.198;2022-11-20T03:48:38;7.45;;;4.75;;
65271;SDS011;51868;48.812;8.198;2022-11-20T03:51:09;9.80;;;5.10;;
65271;SDS011;51868;48.812;8.198;2022-11-20T03:53:37;7.28;;;4.88;;
65271;SDS011;51868;48.812;8.198;2022-11-20T03:56:06;6.80;;;4.72;;
65271;SDS011;51868;48.812;8.198;2022-11-20T03:58:35;7.60;;;4.85;;
65271;SDS011;51868;48.812;8.198;2022-11-20T04:01:06;6.65;;;4.85;;
65271;SDS011;51868;48.812;8.198;2022-11-20T04:03:35;7.18;;;4.70;;
65271;SDS011;51868;48.812;8.198;2022-11-20T04:06:06;5.70;;;4.20;;
65271;SDS011;51868;48.812;8.198;2022-11-20T04:08:36;5.13;;;4.30;;
65271;SDS011;51868;48.812;8.198;2022-11-20T04:11:10;7.85;;;4.65;;
65271;SDS011;51868;48.812;8.198;2022-11-20T04:13:39;9.25;;;4.70;;
65271;SDS011;51868;48.812;8.198;2022-11-20T04:16:08;6.57;;;4.40;;
65271;SDS011;51868;48.812;8.198;2022-11-20T04:18:36;8.35;;;5.00;;
65271;SDS011;51868;48.812;8.198;2022-11-20T04:21:06;5.60;;;4.45;;
65271;SDS011;51868;48.812;8.198;2022-11-20T04:23:34;5.93;;;4.18;;
65271;SDS011;51868;48.812;8.198;2022-11-20T04:26:02;5.78;;;4.25;;
65271;SDS011;51868;48.812;8.198;2022-11-20T04:28:31;5.30;;;4.20;;
65271;SDS011;51868;48.812;8.198;2022-11-20T04:31:02;6.50;;;4.55;;
65271;SDS011;51868;48.812;8.198;2022-11-20T04:33:31;6.30;;;4.40;;
65271;SDS011;51868;48.812;8.198;2022-11-20T04:36:00;6.70;;;4.53;;
65271;SDS011;51868;48.812;8.198;2022-11-20T04:38:30;6.78;;;4.13;;
65271;SDS011;51868;48.812;8.198;2022-11-20T04:40:58;5.40;;;4.35;;
65271;SDS011;51868;48.812;8.198;2022-11-20T04:43:27;8.13;;;3.88;;
65271;SDS011;51868;48.812;8.198;2022-11-20T04:45:55;6.78;;;4.57;;
65271;SDS011;51868;48.812;8.198;2022-11-20T04:48:24;6.63;;;3.90;;
65271;SDS011;51868;48.812;8.198;2022-11-20T04:50:53;5.95;;;3.97;;
65271;SDS011;51868;48.812;8.198;2022-11-20T04:53:21;6.78;;;3.90;;
65271;SDS011;51868;48.812;8.198;2022-11-20T04:55:50;6.68;;;4.20;;
65271;SDS011;51868;48.812;8.198;2022-11-20T04:58:18;6.88;;;4.32;;
65271;SDS011;51868;48.812;8.198;2022-11-20T05:00:46;6.13;;;4.03;;
65271;SDS011;51868;48.812;8.198;2022-11-20T05:03:13;8.75;;;4.50;;
65271;SDS011;51868;48.812;8.198;2022-11-20T05:05:41;6.22;;;3.92;;
65271;SDS011;51868;48.812;8.198;2022-11-20T05:08:09;4.97;;;4.05;;
65271;SDS011;51868;48.812;8.198;2022-11-20T05:10:36;6.13;;;4.15;;
65271;SDS011;51868;48.812;8.198;2022-11-20T05:13:05;5.63;;;4.18;;
65271;SDS011;51868;48.812;8.198;2022-11-20T05:15:33;5.10;;;3.90;;
65271;SDS011;51868;48.812;8.198;2022-11-20T05:18:01;7.88;;;4.00;;
65271;SDS011;51868;48.812;8.198;2022-11-20T05:20:28;5.47;;;3.70;;
65271;SDS011;51868;48.812;8.198;2022-11-20T05:22:56;4.72;;;3.20;;
65271;SDS011;51868;48.812;8.198;2022-11-20T05:25:24;7.45;;;3.75;;
65271;SDS011;51868;48.812;8.198;2022-11-20T05:27:52;7.50;;;3.53;;
65271;SDS011;51868;48.812;8.198;2022-11-20T05:30:21;4.55;;;3.35;;
65271;SDS011;51868;48.812;8.198;2022-11-20T05:32:49;5.95;;;3.67;;
65271;SDS011;51868;48.812;8.198;2022-11-20T05:35:17;10.95;;;3.72;;
65271;SDS011;51868;48.812;8.198;2022-11-20T05:37:44;4.45;;;3.28;;
65271;SDS011;51868;48.812;8.198;2022-11-20T05:40:12;4.15;;;2.83;;
65271;SDS011;51868;48.812;8.198;2022-11-20T05:42:40;7.03;;;3.75;;
65271;SDS011;51868;48.812;8.198;2022-11-20T05:45:09;5.60;;;3.58;;
65271;SDS011;51868;48.812;8.198;2022-11-20T05:47:38;5.35;;;3.35;;
65271;SDS011;51868;48.812;8.198;2022-11-20T05:50:06;5.68;;;3.25;;
65271;SDS011;51868;48.812;8.198;2022-11-20T05:52:34;7.35;;;3.63;;
65271;SDS011;51868;48.812;8.198;2022-11-20T05:55:02;5.25;;;3.20;;
65271;SDS011;51868;48.812;8.198;2022-11-20T05:57:30;6.78;;;3.05;;
65271;SDS011;51868;48.812;8.198;2022-11-20T05:59:58;4.53;;;2.65;;
65271;SDS011;51868;48.812;8.198;2022-11-20T06:02:25;8.48;;;3.70;;
65271;SDS011;51868;48.812;8.198;2022-11-20T06:04:55;9.35;;;4.07;;
65271;SDS011;51868;48.812;8.198;2022-11-20T06:07:22;6.30;;;4.10;;
65271;SDS011;51868;48.812;8.198;2022-11-20T06:09:50;4.22;;;3.08;;
65271;SDS011;51868;48.812;8.198;2022-11-20T06:12:18;5.80;;;3.35;;
65271;SDS011;51868;48.812;8.198;2022-11-20T06:14:45;5.82;;;3.38;;
65271;SDS011;51868;48.812;8.198;2022-11-20T06:17:13;3.90;;;2.88;;
65271;SDS011;51868;48.812;8.198;2022-11-20T06:19:41;4.22;;;3.17;;
65271;SDS011;51868;48.812;8.198;2022-11-20T06:22:10;4.18;;;2.85;;
65271;SDS011;51868;48.812;8.198;2022-11-20T06:24:37;5.40;;;3.42;;
65271;SDS011;51868;48.812;8.198;2022-11-20T06:27:05;5.03;;;3.65;;
65271;SDS011;51868;48.812;8.198;2022-11-20T06:29:32;5.03;;;3.75;;
65271;SDS011;51868;48.812;8.198;2022-11-20T06:32:00;6.05;;;3.80;;
65271;SDS011;51868;48.812;8.198;2022-11-20T06:34:28;7.47;;;3.80;;
65271;SDS011;51868;48.812;8.198;2022-11-20T06:36:56;6.45;;;3.80;;
65271;SDS011;51868;48.812;8.198;2022-11-20T06:39:25;6.95;;;3.95;;
65271;SDS011;51868;48.812;8.198;2022-11-20T06:41:53;8.10;;;4.03;;
65271;SDS011;51868;48.812;8.198;2022-11-20T06:44:24;5.22;;;3.72;;
65271;SDS011;51868;48.812;8.198;2022-11-20T06:46:52;6.45;;;3.63;;
65271;SDS011;51868;48.812;8.198;2022-11-20T06:49:19;5.57;;;3.20;;
65271;SDS011;51868;48.812;8.198;2022-11-20T06:51:47;6.55;;;4.05;;
65271;SDS011;51868;48.812;8.198;2022-11-20T06:54:15;7.10;;;3.85;;
65271;SDS011;51868;48.812;8.198;2022-11-20T06:56:47;7.15;;;4.53;;
65271;SDS011;51868;48.812;8.198;2022-11-20T06:59:15;7.57;;;3.87;;
65271;SDS011;51868;48.812;8.198;2022-11-20T07:01:42;8.57;;;3.90;;
65271;SDS011;51868;48.812;8.198;2022-11-20T07:04:10;8.13;;;4.32;;
65271;SDS011;51868;48.812;8.198;2022-11-20T07:06:38;5.65;;;4.20;;
65271;SDS011;51868;48.812;8.198;2022-11-20T07:09:05;6.85;;;4.95;;
65271;SDS011;51868;48.812;8.198;2022-11-20T07:11:38;5.80;;;3.97;;
65271;SDS011;51868;48.812;8.198;2022-11-20T07:14:07;7.10;;;4.47;;
65271;SDS011;51868;48.812;8.198;2022-11-20T07:16:34;7.03;;;4.30;;
65271;SDS011;51868;48.812;8.198;2022-11-20T07:19:02;7.00;;;4.00;;
65271;SDS011;51868;48.812;8.198;2022-11-20T07:21:30;7.00;;;4.25;;
65271;SDS011;51868;48.812;8.198;2022-11-20T07:23:57;6.55;;;3.90;;
65271;SDS011;51868;48.812;8.198;2022-11-20T07:26:25;7.82;;;4.53;;
65271;SDS011;51868;48.812;8.198;2022-11-20T07:28:53;6.68;;;4.20;;
65271;SDS011;51868;48.812;8.198;2022-11-20T07:31:22;7.32;;;4.32;;
65271;SDS011;51868;48.812;8.198;2022-11-20T07:33:50;8.10;;;4.32;;
65271;SDS011;51868;48.812;8.198;2022-11-20T07:36:17;4.95;;;3.40;;
65271;SDS011;51868;48.812;8.198;2022-11-20T07:38:45;5.13;;;3.50;;
65271;SDS011;51868;48.812;8.198;2022-11-20T07:41:13;9.10;;;5.18;;
65271;SDS011;51868;48.812;8.198;2022-11-20T07:43:40;6.45;;;4.18;;
65271;SDS011;51868;48.812;8.198;2022-11-20T07:46:08;11.07;;;4.60;;
65271;SDS011;51868;48.812;8.198;2022-11-20T07:48:37;9.68;;;3.83;;
65271;SDS011;51868;48.812;8.198;2022-11-20T07:51:05;6.88;;;4.40;;
65271;SDS011;51868;48.812;8.198;2022-11-20T07:53:33;6.38;;;3.40;;
65271;SDS011;51868;48.812;8.198;2022-11-20T07:56:00;4.32;;;2.90;;
65271;SDS011;51868;48.812;8.198;2022-11-20T07:58:28;5.15;;;3.53;;
65271;SDS011;51868;48.812;8.198;2022-11-20T08:01:01;6.38;;;3.20;;
65271;SDS011;51868;48.812;8.198;2022-11-20T08:03:30;6.18;;;3.33;;
65271;SDS011;51868;48.812;8.198;2022-11-20T08:05:59;8.32;;;4.03;;
65271;SDS011;51868;48.812;8.198;2022-11-20T08:08:28;5.88;;;3.67;;
65271;SDS011;51868;48.812;8.198;2022-11-20T08:10:59;4.95;;;4.00;;
65271;SDS011;51868;48.812;8.198;2022-11-20T08:13:41;6.38;;;4.10;;
65271;SDS011;51868;48.812;8.198;2022-11-20T08:16:26;5.30;;;3.72;;
65271;SDS011;51868;48.812;8.198;2022-11-20T08:18:54;4.97;;;3.38;;
65271;SDS011;51868;48.812;8.198;2022-11-20T08:21:23;6.00;;;4.10;;
65271;SDS011;51868;48.812;8.198;2022-11-20T08:23:51;7.35;;;5.00;;
65271;SDS011;51868;48.812;8.198;2022-11-20T08:26:20;7.15;;;4.50;;
65271;SDS011;51868;48.812;8.198;2022-11-20T08:28:48;8.25;;;5.03;;
65271;SDS011;51868;48.812;8.198;2022-11-20T08:31:16;4.70;;;3.67;;
65271;SDS011;51868;48.812;8.198;2022-11-20T08:33:43;10.52;;;5.90;;
65271;SDS011;51868;48.812;8.198;2022-11-20T08:36:11;7.60;;;5.28;;
65271;SDS011;51868;48.812;8.198;2022-11-20T08:38:40;5.68;;;4.10;;
65271;SDS011;51868;48.812;8.198;2022-11-20T08:41:08;7.88;;;4.82;;
65271;SDS011;51868;48.812;8.198;2022-11-20T08:43:52;8.40;;;4.93;;
65271;SDS011;51868;48.812;8.198;2022-11-20T08:46:22;5.57;;;3.97;;
65271;SDS011;51868;48.812;8.198;2022-11-20T08:48:50;5.32;;;4.20;;
65271;SDS011;51868;48.812;8.198;2022-11-20T08:51:18;6.43;;;4.60;;
65271;SDS011;51868;48.812;8.198;2022-11-20T08:53:48;9.38;;;6.03;;
65271;SDS011;51868;48.812;8.198;2022-11-20T08:56:15;7.43;;;5.05;;
65271;SDS011;51868;48.812;8.198;2022-11-20T08:58:44;6.95;;;4.65;;
65271;SDS011;51868;48.812;8.198;2022-11-20T09:01:31;8.20;;;4.57;;
65271;SDS011;51868;48.812;8.198;2022-11-20T09:03:59;7.68;;;4.28;;
65271;SDS011;51868;48.812;8.198;2022-11-20T09:06:27;6.05;;;3.95;;
65271;SDS011;51868;48.812;8.198;2022-11-20T09:08:56;6.57;;;4.18;;
65271;SDS011;51868;48.812;8.198;2022-11-20T09:11:31;7.00;;;5.28;;
65271;SDS011;51868;48.812;8.198;2022-11-20T09:13:59;10.20;;;6.07;;
65271;SDS011;51868;48.812;8.198;2022-11-20T09:16:28;11.63;;;6.40;;
65271;SDS011;51868;48.812;8.198;2022-11-20T09:18:56;7.95;;;4.82;;
65271;SDS011;51868;48.812;8.198;2022-11-20T09:21:44;5.95;;;3.80;;
65271;SDS011;51868;48.812;8.198;2022-11-20T09:24:13;5.97;;;4.20;;
65271;SDS011;51868;48.812;8.198;2022-11-20T09:26:40;7.32;;;4.07;;
65271;SDS011;51868;48.812;8.198;2022-11-20T09:29:08;4.78;;;3.65;;
65271;SDS011;51868;48.812;8.198;2022-11-20T09:31:36;8.05;;;4.57;;
65271;SDS011;51868;48.812;8.198;2022-11-20T09:34:05;8.75;;;4.40;;
65271;SDS011;51868;48.812;8.198;2022-11-20T09:36:33;6.18;;;4.07;;
65271;SDS011;51868;48.812;8.198;2022-11-20T09:39:01;9.75;;;4.72;;
65271;SDS011;51868;48.812;8.198;2022-11-20T09:41:35;7.65;;;4.35;;
65271;SDS011;51868;48.812;8.198;2022-11-20T09:44:16;5.45;;;4.07;;
65271;SDS011;51868;48.812;8.198;2022-11-20T09:46:55;6.43;;;4.60;;
65271;SDS011;51868;48.812;8.198;2022-11-20T09:49:28;6.75;;;4.32;;
65271;SDS011;51868;48.812;8.198;2022-11-20T09:52:08;6.97;;;4.43;;
65271;SDS011;51868;48.812;8.198;2022-11-20T09:54:43;6.53;;;4.72;;
65271;SDS011;51868;48.812;8.198;2022-11-20T09:57:13;7.20;;;5.20;;
65271;SDS011;51868;48.812;8.198;2022-11-20T09:59:46;7.10;;;4.20;;
65271;SDS011;51868;48.812;8.198;2022-11-20T10:02:19;7.40;;;4.72;;
65271;SDS011;51868;48.812;8.198;2022-11-20T10:04:55;7.25;;;5.03;;
65271;SDS011;51868;48.812;8.198;2022-11-20T10:07:27;5.93;;;3.75;;
65271;SDS011;51868;48.812;8.198;2022-11-20T10:10:01;7.95;;;4.30;;
65271;SDS011;51868;48.812;8.198;2022-11-20T10:12:33;6.65;;;4.13;;
65271;SDS011;51868;48.812;8.198;2022-11-20T10:15:12;5.63;;;4.07;;
65271;SDS011;51868;48.812;8.198;2022-11-20T10:17:58;7.13;;;4.60;;
65271;SDS011;51868;48.812;8.198;2022-11-20T10:20:48;11.45;;;4.88;;
65271;SDS011;51868;48.812;8.198;2022-11-20T10:23:28;6.15;;;4.10;;
65271;SDS011;51868;48.812;8.198;2022-11-20T10:26:07;6.05;;;4.30;;
65271;SDS011;51868;48.812;8.198;2022-11-20T10:28:48;4.95;;;3.70;;
65271;SDS011;51868;48.812;8.198;2022-11-20T10:31:34;7.22;;;4.40;;
65271;SDS011;51868;48.812;8.198;2022-11-20T10:34:05;8.27;;;4.20;;
65271;SDS011;51868;48.812;8.198;2022-11-20T10:36:38;6.20;;;3.50;;
65271;SDS011;51868;48.812;8.198;2022-11-20T10:39:14;7.38;;;3.85;;
65271;SDS011;51868;48.812;8.198;2022-11-20T10:41:47;5.72;;;3.58;;
65271;SDS011;51868;48.812;8.198;2022-11-20T10:44:21;5.90;;;3.67;;
65271;SDS011;51868;48.812;8.198;2022-11-20T10:47:12;4.95;;;3.42;;
65271;SDS011;51868;48.812;8.198;2022-11-20T10:49:41;4.15;;;2.80;;
65271;SDS011;51868;48.812;8.198;2022-11-20T10:52:12;4.30;;;2.83;;
65271;SDS011;51868;48.812;8.198;2022-11-20T10:54:47;7.38;;;3.38;;
65271;SDS011;51868;48.812;8.198;2022-11-20T10:57:25;6.13;;;3.15;;
65271;SDS011;51868;48.812;8.198;2022-11-20T11:00:05;3.25;;;2.60;;
65271;SDS011;51868;48.812;8.198;2022-11-20T11:02:34;4.90;;;2.67;;
65271;SDS011;51868;48.812;8.198;2022-11-20T11:05:10;5.07;;;3.22;;
65271;SDS011;51868;48.812;8.198;2022-11-20T11:07:44;4.45;;;2.80;;
65271;SDS011;51868;48.812;8.198;2022-11-20T11:10:14;3.28;;;2.70;;
65271;SDS011;51868;48.812;8.198;2022-11-20T11:12:45;5.32;;;3.08;;
65271;SDS011;51868;48.812;8.198;2022-11-20T11:15:24;6.53;;;2.80;;
65271;SDS011;51868;48.812;8.198;2022-11-20T11:17:53;4.95;;;3.05;;
65271;SDS011;51868;48.812;8.198;2022-11-20T11:20:21;5.07;;;2.92;;
65271;SDS011;51868;48.812;8.198;2022-11-20T11:22:50;4.75;;;2.88;;
65271;SDS011;51868;48.812;8.198;2022-11-20T11:25:20;4.72;;;3.00;;
65271;SDS011;51868;48.812;8.198;2022-11-20T11:27:50;5.40;;;3.03;;
65271;SDS011;51868;48.812;8.198;2022-11-20T11:30:20;4.82;;;2.67;;
65271;SDS011;51868;48.812;8.198;2022-11-20T11:32:48;5.13;;;3.00;;
65271;SDS011;51868;48.812;8.198;2022-11-20T11:35:24;4.65;;;2.83;;
65271;SDS011;51868;48.812;8.198;2022-11-20T11:37:53;3.70;;;2.80;;
65271;SDS011;51868;48.812;8.198;2022-11-20T11:40:31;6.30;;;3.05;;
65271;SDS011;51868;48.812;8.198;2022-11-20T11:43:04;5.10;;;2.80;;
65271;SDS011;51868;48.812;8.198;2022-11-20T11:46:05;4.00;;;3.03;;
65271;SDS011;51868;48.812;8.198;2022-11-20T11:48:54;7.15;;;3.08;;
65271;SDS011;51868;48.812;8.198;2022-11-20T11:53:55;5.15;;;2.90;;
65271;SDS011;51868;48.812;8.198;2022-11-20T11:56:25;4.55;;;2.67;;
65271;SDS011;51868;48.812;8.198;2022-11-20T11:58:54;3.30;;;2.17;;
65271;SDS011;51868;48.812;8.198;2022-11-20T12:01:29;4.78;;;2.22;;
65271;SDS011;51868;48.812;8.198;2022-11-20T12:04:04;4.60;;;2.50;;
65271;SDS011;51868;48.812;8.198;2022-11-20T12:06:38;3.15;;;2.00;;
65271;SDS011;51868;48.812;8.198;2022-11-20T12:09:10;3.00;;;1.70;;
65271;SDS011;51868;48.812;8.198;2022-11-20T12:11:42;5.10;;;1.75;;
65271;SDS011;51868;48.812;8.198;2022-11-20T12:14:14;3.70;;;1.60;;
65271;SDS011;51868;48.812;8.198;2022-11-20T12:16:47;4.50;;;1.50;;
65271;SDS011;51868;48.812;8.198;2022-11-20T12:19:14;3.53;;;1.50;;
65271;SDS011;51868;48.812;8.198;2022-11-20T12:21:45;4.15;;;1.20;;
65271;SDS011;51868;48.812;8.198;2022-11-20T12:30:23;3.63;;;1.60;;
65271;SDS011;51868;48.812;8.198;2022-11-20T12:33:02;3.42;;;1.60;;
65271;SDS011;51868;48.812;8.198;2022-11-20T12:35:42;2.83;;;1.75;;
65271;SDS011;51868;48.812;8.198;2022-11-20T12:38:26;3.97;;;2.10;;
65271;SDS011;51868;48.812;8.198;2022-11-20T12:41:04;2.17;;;1.25;;
65271;SDS011;51868;48.812;8.198;2022-11-20T12:43:40;2.70;;;1.33;;
65271;SDS011;51868;48.812;8.198;2022-11-20T12:46:33;2.25;;;1.27;;
65271;SDS011;51868;48.812;8.198;2022-11-20T12:49:19;4.82;;;1.65;;
65271;SDS011;51868;48.812;8.198;2022-11-20T12:51:58;3.83;;;1.30;;
65271;SDS011;51868;48.812;8.198;2022-11-20T12:54:43;2.40;;;1.30;;
65271;SDS011;51868;48.812;8.198;2022-11-20T12:57:18;2.70;;;1.00;;
65271;SDS011;51868;48.812;8.198;2022-11-20T12:59:59;3.88;;;1.00;;
65271;SDS011;51868;48.812;8.198;2022-11-20T13:02:37;3.20;;;1.33;;
65271;SDS011;51868;48.812;8.198;2022-11-20T13:05:18;2.80;;;1.20;;
65271;SDS011;51868;48.812;8.198;2022-11-20T13:07:48;5.50;;;1.30;;
65271;SDS011;51868;48.812;8.198;2022-11-20T13:10:21;1.70;;;1.05;;
65271;SDS011;51868;48.812;8.198;2022-11-20T13:12:56;3.03;;;1.40;;
65271;SDS011;51868;48.812;8.198;2022-11-20T13:15:39;2.40;;;1.20;;
65271;SDS011;51868;48.812;8.198;2022-11-20T13:18:14;2.65;;;1.17;;
65271;SDS011;51868;48.812;8.198;2022-11-20T13:20:44;3.92;;;1.42;;
65271;SDS011;51868;48.812;8.198;2022-11-20T13:23:22;4.95;;;1.45;;
65271;SDS011;51868;48.812;8.198;2022-11-20T13:26:02;2.65;;;1.20;;
65271;SDS011;51868;48.812;8.198;2022-11-20T13:28:30;3.25;;;1.58;;
65271;SDS011;51868;48.812;8.198;2022-11-20T13:30:58;2.53;;;1.30;;
65271;SDS011;51868;48.812;8.198;2022-11-20T13:33:28;2.33;;;1.60;;
65271;SDS011;51868;48.812;8.198;2022-11-20T13:36:00;2.35;;;1.60;;
65271;SDS011;51868;48.812;8.198;2022-11-20T13:38:39;2.60;;;1.45;;
65271;SDS011;51868;48.812;8.198;2022-11-20T13:41:10;3.50;;;1.47;;
65271;SDS011;51868;48.812;8.198;2022-11-20T13:43:58;4.53;;;2.45;;
65271;SDS011;51868;48.812;8.198;2022-11-20T13:46:37;5.50;;;1.70;;
65271;SDS011;51868;48.812;8.198;2022-11-20T13:49:07;3.03;;;1.42;;
65271;SDS011;51868;48.812;8.198;2022-11-20T13:51:42;3.08;;;1.75;;
65271;SDS011;51868;48.812;8.198;2022-11-20T13:54:22;3.42;;;1.48;;
65271;SDS011;51868;48.812;8.198;2022-11-20T13:57:27;3.90;;;2.25;;
65271;SDS011;51868;48.812;8.198;2022-11-20T14:00:07;5.15;;;1.92;;
65271;SDS011;51868;48.812;8.198;2022-11-20T14:02:39;2.95;;;1.58;;
65271;SDS011;51868;48.812;8.198;2022-11-20T14:05:12;3.35;;;1.60;;
65271;SDS011;51868;48.812;8.198;2022-11-20T14:07:48;3.45;;;1.27;;
65271;SDS011;51868;48.812;8.198;2022-11-20T14:10:21;2.85;;;1.38;;
65271;SDS011;51868;48.812;8.198;2022-11-20T14:12:57;1.67;;;1.00;;
65271;SDS011;51868;48.812;8.198;2022-11-20T14:15:26;4.57;;;1.50;;
65271;SDS011;51868;48.812;8.198;2022-11-20T14:17:56;2.33;;;1.00;;
65271;SDS011;51868;48.812;8.198;2022-11-20T14:20:24;2.85;;;1.33;;
65271;SDS011;51868;48.812;8.198;2022-11-20T14:22:55;2.83;;;1.50;;
65271;SDS011;51868;48.812;8.198;2022-11-20T14:25:23;3.97;;;1.70;;
65271;SDS011;51868;48.812;8.198;2022-11-20T14:27:54;4.43;;;1.52;;
65271;SDS011;51868;48.812;8.198;2022-11-20T14:30:24;3.28;;;1.65;;
65271;SDS011;51868;48.812;8.198;2022-11-20T14:32:54;2.13;;;1.02;;
65271;SDS011;51868;48.812;8.198;2022-11-20T14:35:25;3.45;;;1.50;;
65271;SDS011;51868;48.812;8.198;2022-11-20T14:37:57;6.28;;;2.00;;
65271;SDS011;51868;48.812;8.198;2022-11-20T14:40:27;3.85;;;1.20;;
65271;SDS011;51868;48.812;8.198;2022-11-20T14:42:56;1.20;;;0.95;;
65271;SDS011;51868;48.812;8.198;2022-11-20T14:45:25;4.35;;;1.20;;
65271;SDS011;51868;48.812;8.198;2022-11-20T14:47:54;3.45;;;1.13;;
65271;SDS011;51868;48.812;8.198;2022-11-20T14:50:24;2.22;;;1.25;;
65271;SDS011;51868;48.812;8.198;2022-11-20T14:52:54;1.75;;;1.20;;
65271;SDS011;51868;48.812;8.198;2022-11-20T14:55:28;4.55;;;1.52;;
65271;SDS011;51868;48.812;8.198;2022-11-20T14:57:57;2.63;;;1.40;;
65271;SDS011;51868;48.812;8.198;2022-11-20T15:00:27;2.83;;;1.60;;
65271;SDS011;51868;48.812;8.198;2022-11-20T15:02:55;2.05;;;1.00;;
65271;SDS011;51868;48.812;8.198;2022-11-20T15:05:24;3.85;;;1.33;;
65271;SDS011;51868;48.812;8.198;2022-11-20T15:08:04;2.28;;;1.63;;
65271;SDS011;51868;48.812;8.198;2022-11-20T15:10:35;5.80;;;2.17;;
65271;SDS011;51868;48.812;8.198;2022-11-20T15:13:04;3.50;;;1.23;;
65271;SDS011;51868;48.812;8.198;2022-11-20T15:15:40;5.50;;;2.13;;
65271;SDS011;51868;48.812;8.198;2022-11-20T15:18:12;1.98;;;1.30;;
65271;SDS011;51868;48.812;8.198;2022-11-20T15:20:41;1.73;;;1.02;;